createdAt,value
2022-10-25T00:01:31.143Z,1.60
2022-10-25T00:03:58.727Z,1.83
2022-10-25T00:06:25.551Z,1.43
2022-10-25T00:08:52.523Z,1.90
2022-10-25T00:11:28.346Z,1.60
2022-10-25T00:13:58.145Z,1.50
2022-10-25T00:16:29.355Z,1.57
2022-10-25T00:18:56.496Z,1.53
2022-10-25T00:21:24.309Z,1.43
2022-10-25T00:23:52.536Z,1.30
2022-10-25T00:26:20.588Z,1.60
2022-10-25T00:28:47.348Z,1.50
2022-10-25T00:31:16.778Z,1.40
2022-10-25T00:33:44.834Z,1.23
2022-10-25T00:36:22.019Z,1.70
2022-10-25T00:38:49.114Z,2.13
2022-10-25T00:41:19.801Z,1.60
2022-10-25T00:43:57.221Z,1.40
2022-10-25T00:46:31.987Z,1.20
2022-10-25T00:49:15.464Z,1.43
2022-10-25T00:51:53.643Z,1.40
2022-10-25T00:54:32.132Z,1.87
2022-10-25T00:57:06.165Z,1.50
2022-10-25T00:59:32.998Z,1.20
2022-10-25T01:02:00.524Z,1.60
2022-10-25T01:04:31.537Z,1.27
2022-10-25T01:07:00.738Z,1.23
2022-10-25T01:09:31.925Z,1.63
2022-10-25T01:11:58.707Z,1.97
2022-10-25T01:14:26.866Z,1.70
2022-10-25T01:17:18.963Z,1.23
2022-10-25T01:20:36.460Z,1.17
2022-10-25T01:23:55.798Z,1.37
2022-10-25T01:26:56.586Z,1.47
2022-10-25T01:29:55.105Z,1.33
2022-10-25T01:32:33.680Z,1.47
2022-10-25T01:35:16.209Z,1.40
2022-10-25T01:38:13.182Z,1.60
2022-10-25T01:41:00.411Z,1.80
2022-10-25T01:43:41.706Z,1.30
2022-10-25T01:46:36.494Z,1.20
2022-10-25T01:49:14.608Z,1.30
2022-10-25T01:51:41.346Z,1.47
2022-10-25T01:54:22.441Z,2.07
2022-10-25T01:57:04.404Z,1.40
2022-10-25T01:59:56.754Z,1.30
2022-10-25T02:02:36.321Z,1.60
2022-10-25T02:05:18.100Z,1.90
2022-10-25T02:08:18.157Z,1.50
2022-10-25T02:11:05.456Z,1.53
2022-10-25T02:13:58.581Z,1.60
2022-10-25T02:16:29.357Z,1.50
2022-10-25T02:19:03.871Z,1.60
2022-10-25T02:21:35.577Z,1.33
2022-10-25T02:24:12.332Z,1.37
2022-10-25T02:26:43.328Z,1.50
2022-10-25T02:29:13.525Z,1.50
2022-10-25T02:31:40.760Z,1.40
2022-10-25T02:34:07.473Z,1.37
2022-10-25T02:36:34.607Z,1.23
2022-10-25T02:39:02.212Z,1.70
2022-10-25T02:41:29.034Z,1.60
2022-10-25T02:43:55.837Z,1.40
2022-10-25T02:46:23.972Z,1.07
2022-10-25T02:48:51.995Z,1.40
2022-10-25T02:51:18.990Z,1.63
2022-10-25T02:53:46.073Z,1.50
2022-10-25T02:56:17.512Z,1.40
2022-10-25T02:58:46.727Z,1.77
2022-10-25T03:01:14.914Z,1.33
2022-10-25T03:03:42.171Z,1.40
2022-10-25T03:06:10.631Z,1.50
2022-10-25T03:08:39.714Z,1.43
2022-10-25T03:11:08.995Z,1.27
2022-10-25T03:13:36.351Z,1.63
2022-10-25T03:16:03.951Z,1.50
2022-10-25T03:18:31.097Z,1.80
2022-10-25T03:20:59.619Z,2.33
2022-10-25T03:23:27.066Z,1.80
2022-10-25T03:25:59.525Z,2.07
2022-10-25T03:28:27.772Z,1.97
2022-10-25T03:30:57.119Z,1.80
2022-10-25T03:33:25.435Z,1.97
2022-10-25T03:35:55.827Z,1.50
2022-10-25T03:38:23.126Z,1.63
2022-10-25T03:40:49.884Z,1.67
2022-10-25T03:43:16.766Z,1.40
2022-10-25T03:45:43.555Z,1.50
2022-10-25T03:48:10.447Z,1.73
2022-10-25T03:50:37.266Z,1.73
2022-10-25T03:53:05.580Z,2.00
2022-10-25T03:55:34.232Z,1.70
2022-10-25T03:58:01.166Z,1.47
2022-10-25T04:00:28.630Z,1.90
2022-10-25T04:03:01.793Z,2.00
2022-10-25T04:05:30.649Z,1.63
2022-10-25T04:07:58.083Z,1.43
2022-10-25T04:10:25.656Z,1.80
2022-10-25T04:12:54.527Z,1.43
2022-10-25T04:15:23.998Z,1.43
2022-10-25T04:17:54.559Z,1.73
2022-10-25T04:20:21.936Z,1.40
2022-10-25T04:22:56.613Z,1.87
2022-10-25T04:25:25.797Z,2.23
2022-10-25T04:27:52.616Z,1.50
2022-10-25T04:30:20.114Z,1.77
2022-10-25T04:32:47.145Z,2.53
2022-10-25T04:35:14.382Z,1.80
2022-10-25T04:37:41.084Z,1.60
2022-10-25T04:40:08.945Z,2.10
2022-10-25T04:42:36.010Z,1.67
2022-10-25T04:45:03.087Z,1.47
2022-10-25T04:47:33.962Z,1.77
2022-10-25T04:50:00.867Z,1.80
2022-10-25T04:52:29.855Z,2.20
2022-10-25T04:54:57.082Z,2.00
2022-10-25T04:57:24.473Z,2.50
2022-10-25T04:59:52.548Z,2.40
2022-10-25T05:02:19.397Z,2.40
2022-10-25T05:04:46.230Z,1.80
2022-10-25T05:07:13.001Z,1.70
2022-10-25T05:09:42.672Z,1.80
2022-10-25T05:12:11.907Z,1.50
2022-10-25T05:14:38.603Z,1.60
2022-10-25T05:17:05.463Z,1.90
2022-10-25T05:19:32.140Z,2.17
2022-10-25T05:21:58.976Z,2.10
2022-10-25T05:24:25.722Z,1.90
2022-10-25T05:26:52.412Z,1.90
2022-10-25T05:29:19.163Z,1.87
2022-10-25T05:31:45.849Z,1.80
2022-10-25T05:34:12.604Z,1.63
2022-10-25T05:36:39.321Z,1.57
2022-10-25T05:39:06.165Z,1.90
2022-10-25T05:41:36.066Z,1.97
2022-10-25T05:44:05.666Z,1.90
2022-10-25T05:46:32.784Z,1.60
2022-10-25T05:49:00.114Z,1.63
2022-10-25T05:51:35.900Z,1.87
2022-10-25T05:54:09.249Z,1.40
2022-10-25T05:56:36.805Z,1.80
2022-10-25T05:59:12.497Z,1.90
2022-10-25T06:01:45.288Z,2.03
2022-10-25T06:04:13.380Z,1.63
2022-10-25T06:06:41.866Z,1.80
2022-10-25T06:09:09.691Z,1.50
2022-10-25T06:11:37.961Z,1.60
2022-10-25T06:14:06.235Z,1.77
2022-10-25T06:16:33.713Z,1.10
2022-10-25T06:19:00.454Z,2.10
2022-10-25T06:21:29.667Z,1.73
2022-10-25T06:23:58.842Z,1.70
2022-10-25T06:26:29.663Z,1.60
2022-10-25T06:29:00.134Z,2.00
2022-10-25T06:31:27.603Z,2.13
2022-10-25T06:33:54.392Z,1.80
2022-10-25T06:36:26.939Z,2.27
2022-10-25T06:38:53.805Z,1.63
2022-10-25T06:41:23.794Z,1.60
2022-10-25T06:43:51.342Z,1.80
2022-10-25T06:46:25.271Z,1.63
2022-10-25T06:48:54.321Z,2.27
2022-10-25T06:51:23.050Z,1.70
2022-10-25T06:53:58.202Z,1.40
2022-10-25T06:56:26.412Z,2.33
2022-10-25T06:58:53.601Z,1.60
2022-10-25T07:01:23.246Z,1.40
2022-10-25T07:03:51.045Z,1.83
2022-10-25T07:06:35.303Z,1.87
2022-10-25T07:09:02.541Z,1.77
2022-10-25T07:11:32.613Z,1.70
2022-10-25T07:14:00.611Z,1.63
2022-10-25T07:16:28.899Z,1.63
2022-10-25T07:19:04.423Z,1.60
2022-10-25T07:21:32.860Z,1.57
2022-10-25T07:23:59.647Z,1.60
2022-10-25T07:26:35.791Z,1.47
2022-10-25T07:29:04.499Z,1.50
2022-10-25T07:31:38.301Z,1.83
2022-10-25T07:34:06.309Z,1.33
2022-10-25T07:36:34.153Z,1.90
2022-10-25T07:39:00.939Z,1.50
2022-10-25T07:41:27.716Z,1.50
2022-10-25T07:43:55.395Z,1.90
2022-10-25T07:46:23.042Z,1.40
2022-10-25T07:48:49.745Z,1.40
2022-10-25T07:51:18.235Z,1.30
2022-10-25T07:53:45.238Z,1.47
2022-10-25T07:56:22.302Z,1.70
2022-10-25T07:58:52.233Z,1.83
2022-10-25T08:01:24.854Z,1.30
2022-10-25T08:03:53.106Z,1.33
2022-10-25T08:06:21.554Z,1.40
2022-10-25T08:08:49.124Z,1.40
2022-10-25T08:11:16.874Z,1.43
2022-10-25T08:13:43.698Z,1.60
2022-10-25T08:16:10.428Z,1.80
2022-10-25T08:18:37.145Z,1.23
2022-10-25T08:21:04.781Z,1.50
2022-10-25T08:23:32.772Z,1.47
2022-10-25T08:26:01.042Z,1.43
2022-10-25T08:28:28.243Z,2.20
2022-10-25T08:30:55.643Z,1.40
2022-10-25T08:33:23.726Z,1.50
2022-10-25T08:35:50.482Z,1.80
2022-10-25T08:38:17.474Z,1.50
2022-10-25T08:41:01.866Z,1.53
2022-10-25T08:44:17.320Z,1.90
2022-10-25T08:47:05.708Z,1.67
2022-10-25T08:50:05.860Z,1.60
2022-10-25T08:52:44.862Z,2.13
2022-10-25T08:55:26.381Z,2.37
2022-10-25T08:57:54.940Z,2.10
2022-10-25T09:00:24.374Z,2.13
2022-10-25T09:03:00.145Z,2.00
2022-10-25T09:05:41.362Z,1.93
2022-10-25T09:08:51.679Z,1.70
2022-10-25T09:11:48.325Z,1.80
2022-10-25T09:14:47.419Z,1.63
2022-10-25T09:17:27.243Z,1.60
2022-10-25T09:20:10.439Z,1.73
2022-10-25T09:23:04.882Z,1.23
2022-10-25T09:26:03.027Z,1.50
2022-10-25T09:29:02.341Z,1.70
2022-10-25T09:31:36.103Z,1.23
2022-10-25T09:34:06.922Z,1.57
2022-10-25T09:36:46.129Z,1.80
2022-10-25T09:39:22.989Z,1.80
2022-10-25T09:41:54.436Z,1.57
2022-10-25T09:44:41.126Z,1.60
2022-10-25T09:47:51.247Z,1.53
2022-10-25T09:50:35.277Z,1.50
2022-10-25T09:53:20.357Z,1.67
2022-10-25T09:55:57.328Z,1.50
2022-10-25T09:58:27.698Z,1.87
2022-10-25T10:01:04.450Z,1.67
2022-10-25T10:03:35.341Z,1.37
2022-10-25T10:06:21.096Z,1.40
2022-10-25T10:08:56.888Z,1.70
2022-10-25T10:11:24.448Z,1.70
2022-10-25T10:14:03.924Z,1.40
2022-10-25T10:16:41.937Z,1.40
2022-10-25T10:19:18.290Z,1.30
2022-10-25T10:21:47.573Z,2.13
2022-10-25T10:24:26.220Z,1.30
2022-10-25T10:26:58.334Z,1.30
2022-10-25T10:29:31.861Z,1.40
2022-10-25T10:32:24.051Z,1.10
2022-10-25T10:35:02.584Z,1.23
2022-10-25T10:37:32.529Z,1.55
2022-10-25T10:40:23.949Z,1.30
2022-10-25T10:42:51.175Z,1.58
2022-10-25T10:45:19.979Z,1.13
2022-10-25T10:47:52.381Z,1.58
2022-10-25T10:50:22.244Z,1.42
2022-10-25T10:53:06.336Z,1.33
2022-10-25T10:55:53.991Z,1.30
2022-10-25T10:58:38.397Z,1.38
2022-10-25T11:01:09.695Z,1.20
2022-10-25T11:03:48.981Z,1.20
2022-10-25T11:06:30.687Z,1.52
2022-10-25T11:09:23.767Z,1.45
2022-10-25T11:12:22.806Z,1.10
2022-10-25T11:14:49.707Z,1.58
2022-10-25T11:17:32.180Z,1.48
2022-10-25T11:20:29.914Z,1.27
2022-10-25T11:23:18.704Z,0.98
2022-10-25T11:26:02.179Z,1.30
2022-10-25T11:29:12.751Z,0.90
2022-10-25T11:32:27.797Z,0.90
2022-10-25T11:35:29.723Z,1.47
2022-10-25T11:38:07.985Z,1.40
2022-10-25T11:40:45.077Z,1.57
2022-10-25T11:43:34.598Z,1.10
2022-10-25T11:46:30.424Z,1.30
2022-10-25T11:49:09.108Z,1.60
2022-10-25T11:52:08.631Z,1.50
2022-10-25T11:55:02.896Z,1.13
2022-10-25T11:57:52.865Z,1.17
2022-10-25T12:00:24.077Z,0.93
2022-10-25T12:03:21.557Z,1.17
2022-10-25T12:06:14.150Z,1.10
2022-10-25T12:09:22.290Z,1.20
2022-10-25T12:11:59.853Z,1.40
2022-10-25T12:14:36.926Z,1.20
2022-10-25T12:17:07.742Z,1.30
2022-10-25T12:19:47.599Z,1.17
2022-10-25T12:22:26.070Z,1.60
2022-10-25T12:25:08.160Z,1.00
2022-10-25T12:27:36.298Z,1.40
2022-10-25T12:30:13.874Z,1.50
2022-10-25T12:32:57.323Z,1.33
2022-10-25T12:35:40.376Z,1.10
2022-10-25T12:38:18.478Z,1.20
2022-10-25T12:40:49.641Z,1.55
2022-10-25T12:43:38.855Z,1.10
2022-10-25T12:46:45.025Z,1.17
2022-10-25T12:49:44.734Z,1.10
2022-10-25T12:52:39.360Z,1.35
2022-10-25T12:56:00.916Z,0.93
2022-10-25T12:58:57.129Z,1.00
2022-10-25T13:01:44.751Z,1.00
2022-10-25T13:05:06.397Z,1.23
2022-10-25T13:07:36.582Z,1.52
2022-10-25T13:10:14.913Z,1.00
2022-10-25T13:12:43.319Z,1.10
2022-10-25T13:15:19.041Z,1.02
2022-10-25T13:18:01.260Z,0.93
2022-10-25T13:20:33.878Z,1.02
2022-10-25T13:23:00.735Z,1.00
2022-10-25T13:25:50.221Z,1.30
2022-10-25T13:28:16.901Z,1.20
2022-10-25T13:30:45.126Z,1.20
2022-10-25T13:33:27.176Z,1.10
2022-10-25T13:35:53.870Z,1.08
2022-10-25T13:38:25.272Z,1.00
2022-10-25T13:41:19.313Z,1.35
2022-10-25T13:44:04.519Z,1.13
2022-10-25T13:46:39.486Z,1.13
2022-10-25T13:49:28.401Z,0.98
2022-10-25T13:51:58.698Z,1.10
2022-10-25T13:54:39.493Z,1.00
2022-10-25T13:57:49.837Z,1.13
2022-10-25T14:00:37.861Z,1.30
2022-10-25T14:03:14.122Z,1.23
2022-10-25T14:05:56.129Z,1.00
2022-10-25T14:08:31.622Z,1.20
2022-10-25T14:11:35.139Z,1.17
2022-10-25T14:14:11.698Z,1.00
2022-10-25T14:17:14.630Z,1.13
2022-10-25T14:19:58.874Z,1.20
2022-10-25T14:22:40.043Z,0.97
2022-10-25T14:25:31.718Z,1.00
2022-10-25T14:28:21.965Z,1.20
2022-10-25T14:30:59.666Z,1.33
2022-10-25T14:33:26.297Z,1.93
2022-10-25T14:36:23.732Z,1.40
2022-10-25T14:38:54.541Z,1.30
2022-10-25T14:41:25.728Z,1.20
2022-10-25T14:43:53.577Z,1.73
2022-10-25T14:46:27.006Z,1.00
2022-10-25T14:48:57.677Z,1.30
2022-10-25T14:51:37.943Z,1.20
2022-10-25T14:54:20.101Z,1.10
2022-10-25T14:56:53.209Z,1.10
2022-10-25T14:59:40.238Z,1.40
2022-10-25T15:02:35.117Z,0.97
2022-10-25T15:05:04.766Z,1.43
2022-10-25T15:07:42.815Z,1.30
2022-10-25T15:10:37.668Z,1.13
2022-10-25T15:13:13.811Z,1.30
2022-10-25T15:15:46.633Z,1.03
2022-10-25T15:18:23.257Z,1.20
2022-10-25T15:21:05.442Z,1.40
2022-10-25T15:23:34.080Z,1.30
2022-10-25T15:26:23.045Z,1.40
2022-10-25T15:28:55.789Z,1.30
2022-10-25T15:31:26.491Z,1.20
2022-10-25T15:34:16.339Z,1.40
2022-10-25T15:36:44.540Z,1.10
2022-10-25T15:39:27.294Z,1.30
2022-10-25T15:41:54.565Z,1.47
2022-10-25T15:44:21.650Z,1.43
2022-10-25T15:46:49.352Z,1.70
2022-10-25T15:49:16.485Z,1.20
2022-10-25T15:51:45.467Z,1.30
2022-10-25T15:54:23.207Z,2.50
2022-10-25T15:56:51.784Z,2.37
2022-10-25T15:59:18.788Z,3.63
2022-10-25T16:01:51.511Z,1.60
2022-10-25T16:04:19.723Z,2.33
2022-10-25T16:06:47.332Z,2.70
2022-10-25T16:09:14.402Z,1.73
2022-10-25T16:11:47.632Z,2.00
2022-10-25T16:14:34.051Z,3.33
2022-10-25T16:17:00.850Z,3.10
2022-10-25T16:19:31.289Z,3.60
2022-10-25T16:21:59.187Z,3.00
2022-10-25T16:24:26.049Z,2.23
2022-10-25T16:26:52.886Z,2.40
2022-10-25T16:29:22.649Z,2.00
2022-10-25T16:31:49.607Z,2.07
2022-10-25T16:34:17.787Z,2.13
2022-10-25T16:36:46.021Z,2.73
2022-10-25T16:39:13.314Z,2.80
2022-10-25T16:41:45.668Z,2.73
2022-10-25T16:44:15.802Z,4.00
2022-10-25T16:46:42.627Z,3.80
2022-10-25T16:49:09.675Z,4.27
2022-10-25T16:51:38.233Z,4.10
2022-10-25T16:54:05.705Z,3.93
2022-10-25T16:56:32.740Z,2.50
2022-10-25T16:59:00.449Z,2.20
2022-10-25T17:01:40.028Z,2.53
2022-10-25T17:04:10.571Z,1.90
2022-10-25T17:06:42.073Z,2.83
2022-10-25T17:09:10.542Z,2.80
2022-10-25T17:11:37.413Z,2.40
2022-10-25T17:14:04.844Z,2.67
2022-10-25T17:16:32.270Z,2.47
2022-10-25T17:18:58.957Z,2.50
2022-10-25T17:21:27.795Z,2.67
2022-10-25T17:23:55.575Z,2.70
2022-10-25T17:26:22.531Z,2.83
2022-10-25T17:28:49.311Z,2.40
2022-10-25T17:31:16.175Z,2.60
2022-10-25T17:33:43.105Z,2.43
2022-10-25T17:36:13.999Z,2.33
2022-10-25T17:38:41.554Z,3.90
2022-10-25T17:41:09.321Z,2.50
2022-10-25T17:43:38.892Z,2.50
2022-10-25T17:46:16.976Z,2.40
2022-10-25T17:48:43.803Z,2.90
2022-10-25T17:51:13.607Z,3.40
2022-10-25T17:53:40.906Z,2.50
2022-10-25T17:56:18.984Z,2.77
2022-10-25T17:58:48.053Z,3.10
2022-10-25T18:01:27.130Z,3.20
2022-10-25T18:03:55.351Z,5.60
2022-10-25T18:06:25.296Z,4.23
2022-10-25T18:08:57.888Z,3.50
2022-10-25T18:11:28.198Z,3.03
2022-10-25T18:14:04.017Z,3.07
2022-10-25T18:16:32.560Z,3.40
2022-10-25T18:19:02.979Z,3.20
2022-10-25T18:21:31.768Z,2.60
2022-10-25T18:24:02.652Z,2.80
2022-10-25T18:26:29.819Z,2.83
2022-10-25T18:28:58.405Z,2.70
2022-10-25T18:31:27.015Z,2.40
2022-10-25T18:33:55.395Z,2.53
2022-10-25T18:36:22.161Z,2.73
2022-10-25T18:38:50.098Z,3.27
2022-10-25T18:41:20.692Z,2.33
2022-10-25T18:43:47.721Z,2.90
2022-10-25T18:46:15.274Z,2.33
2022-10-25T18:48:42.207Z,2.47
2022-10-25T18:51:14.202Z,1.83
2022-10-25T18:53:41.326Z,1.87
2022-10-25T18:56:16.997Z,1.90
2022-10-25T18:58:46.698Z,1.73
2022-10-25T19:01:17.606Z,2.03
2022-10-25T19:03:44.802Z,1.90
2022-10-25T19:06:12.508Z,1.60
2022-10-25T19:08:40.051Z,1.60
2022-10-25T19:11:13.191Z,1.73
2022-10-25T19:13:41.050Z,2.03
2022-10-25T19:16:09.440Z,1.83
2022-10-25T19:18:37.501Z,1.73
2022-10-25T19:21:10.543Z,1.80
2022-10-25T19:23:39.178Z,2.33
2022-10-25T19:26:09.557Z,2.13
2022-10-25T19:28:37.030Z,2.60
2022-10-25T19:31:10.422Z,2.00
2022-10-25T19:33:37.599Z,2.47
2022-10-25T19:36:10.447Z,2.30
2022-10-25T19:38:38.914Z,2.50
2022-10-25T19:41:09.591Z,2.60
2022-10-25T19:43:36.740Z,3.27
2022-10-25T19:46:06.895Z,2.50
2022-10-25T19:48:35.108Z,2.50
2022-10-25T19:51:07.607Z,3.07
2022-10-25T19:53:34.437Z,3.20
2022-10-25T19:56:06.659Z,2.80
2022-10-25T19:58:33.529Z,2.87
2022-10-25T20:01:13.386Z,2.97
2022-10-25T20:03:41.811Z,3.23
2022-10-25T20:06:24.290Z,2.50
2022-10-25T20:08:52.805Z,2.63
2022-10-25T20:11:20.776Z,3.07
2022-10-25T20:13:47.598Z,2.67
2022-10-25T20:16:14.947Z,2.47
2022-10-25T20:18:42.721Z,2.47
2022-10-25T20:21:19.150Z,2.67
2022-10-25T20:23:51.194Z,2.60
2022-10-25T20:26:31.247Z,2.60
2022-10-25T20:29:02.581Z,2.70
2022-10-25T20:31:32.918Z,3.03
2022-10-25T20:34:01.475Z,2.67
2022-10-25T20:36:28.468Z,2.40
2022-10-25T20:38:55.299Z,2.30
2022-10-25T20:41:28.287Z,2.60
2022-10-25T20:44:03.787Z,2.07
2022-10-25T20:46:32.992Z,2.40
2022-10-25T20:49:01.922Z,2.53
2022-10-25T20:51:29.007Z,2.23
2022-10-25T20:53:56.900Z,2.43
2022-10-25T20:56:24.305Z,2.43
2022-10-25T20:58:51.523Z,2.13
2022-10-25T21:01:18.689Z,2.50
2022-10-25T21:03:45.586Z,1.97
2022-10-25T21:06:14.175Z,2.60
2022-10-25T21:08:41.409Z,2.77
2022-10-25T21:11:12.618Z,2.43
2022-10-25T21:13:39.977Z,3.10
2022-10-25T21:16:12.974Z,3.23
2022-10-25T21:18:40.560Z,2.63
2022-10-25T21:21:14.936Z,2.60
2022-10-25T21:23:41.681Z,3.20
2022-10-25T21:26:09.414Z,3.33
2022-10-25T21:28:39.267Z,2.50
2022-10-25T21:31:15.430Z,2.53
2022-10-25T21:33:51.280Z,2.73
2022-10-25T21:36:20.256Z,2.87
2022-10-25T21:38:47.939Z,2.60
2022-10-25T21:41:26.547Z,2.30
2022-10-25T21:43:55.065Z,2.50
2022-10-25T21:46:23.913Z,2.53
2022-10-25T21:48:51.491Z,2.00
2022-10-25T21:51:20.772Z,2.20
2022-10-25T21:53:48.399Z,2.43
2022-10-25T21:56:20.575Z,2.47
2022-10-25T21:58:49.781Z,2.73
2022-10-25T22:01:21.165Z,2.60
2022-10-25T22:03:48.626Z,2.20
2022-10-25T22:06:19.740Z,2.77
2022-10-25T22:08:47.913Z,2.50
2022-10-25T22:11:17.998Z,2.37
2022-10-25T22:13:45.346Z,2.50
2022-10-25T22:16:18.460Z,3.40
2022-10-25T22:18:58.953Z,2.60
2022-10-25T22:21:29.394Z,2.90
2022-10-25T22:23:56.318Z,2.53
2022-10-25T22:26:23.520Z,2.70
2022-10-25T22:28:55.901Z,2.60
2022-10-25T22:31:24.308Z,2.90
2022-10-25T22:33:57.193Z,2.47
2022-10-25T22:36:28.252Z,2.40
2022-10-25T22:38:55.707Z,2.30
2022-10-25T22:41:25.861Z,2.40
2022-10-25T22:43:53.211Z,2.20
2022-10-25T22:46:27.491Z,2.10
2022-10-25T22:48:57.788Z,2.47
2022-10-25T22:51:27.809Z,2.33
2022-10-25T22:53:55.089Z,2.20
2022-10-25T22:56:28.618Z,2.43
2022-10-25T22:58:59.795Z,2.43
2022-10-25T23:01:36.118Z,2.73
2022-10-25T23:04:06.800Z,2.33
2022-10-25T23:06:38.031Z,2.70
2022-10-25T23:09:09.081Z,2.83
2022-10-25T23:11:38.578Z,2.67
2022-10-25T23:14:07.323Z,2.50
2022-10-25T23:16:34.522Z,2.30
2022-10-25T23:19:01.400Z,2.70
2022-10-25T23:21:32.314Z,2.30
2022-10-25T23:24:00.351Z,2.30
2022-10-25T23:26:33.537Z,2.10
2022-10-25T23:29:01.150Z,2.77
2022-10-25T23:31:30.408Z,2.70
2022-10-25T23:34:00.125Z,2.97
2022-10-25T23:36:30.647Z,2.37
2022-10-25T23:38:58.359Z,2.70
2022-10-25T23:41:25.138Z,2.77
2022-10-25T23:43:52.077Z,2.30
2022-10-25T23:46:19.138Z,2.60
2022-10-25T23:48:46.111Z,2.50
2022-10-25T23:51:17.281Z,2.80
2022-10-25T23:53:45.547Z,2.63
2022-10-25T23:56:14.055Z,2.60
2022-10-25T23:58:41.542Z,2.53
